createdAt,value
2023-03-22T05:26:09.207Z,35.87
2023-03-22T05:30:13.592Z,31.77
2023-03-22T05:34:17.608Z,28.02
2023-03-22T05:38:23.146Z,28.80
2023-03-22T05:42:26.780Z,31.55
2023-03-22T05:46:30.318Z,39.22
2023-03-22T05:50:36.001Z,27.95
2023-03-22T05:54:39.996Z,30.10
2023-03-22T05:58:45.145Z,28.05
2023-03-22T06:02:49.698Z,24.90
2023-03-22T06:06:54.142Z,38.23
2023-03-22T06:10:58.514Z,31.23
2023-03-22T06:15:02.515Z,22.52
2023-03-22T06:19:08.396Z,20.53
2023-03-22T06:23:11.793Z,19.58
2023-03-22T06:27:15.118Z,17.08
2023-03-22T06:31:39.360Z,21.95
2023-03-22T06:35:42.275Z,16.00
2023-03-22T06:39:46.744Z,15.95
2023-03-22T06:43:50.225Z,18.52
2023-03-22T06:47:57.780Z,16.13
2023-03-22T06:52:01.530Z,16.33
2023-03-22T06:56:05.960Z,14.57
2023-03-22T07:00:13.274Z,16.20
2023-03-22T07:04:21.086Z,16.30
2023-03-22T07:08:26.095Z,12.82
2023-03-22T07:12:32.521Z,12.05
2023-03-22T07:17:01.485Z,11.40
2023-03-22T07:21:24.415Z,12.00
2023-03-22T07:26:07.471Z,12.57
2023-03-22T07:30:38.899Z,12.33
2023-03-22T07:34:51.702Z,14.13
2023-03-22T07:39:00.387Z,9.70
2023-03-22T07:43:17.798Z,13.30
2023-03-22T07:52:34.770Z,12.23
2023-03-22T07:57:08.837Z,11.20
2023-03-22T08:01:18.450Z,9.83
2023-03-22T08:05:29.901Z,11.88
2023-03-22T08:09:47.278Z,9.57
2023-03-22T08:14:27.449Z,10.50
2023-03-22T08:19:13.143Z,9.38
2023-03-22T08:23:42.045Z,9.30
2023-03-22T08:28:14.514Z,10.60
2023-03-22T08:32:41.771Z,9.07
2023-03-22T08:36:50.771Z,9.32
2023-03-22T08:41:55.336Z,9.70
2023-03-22T08:47:25.668Z,8.63
2023-03-22T08:56:33.709Z,9.48
2023-03-22T09:10:20.843Z,9.60
2023-03-22T09:14:25.090Z,7.93
2023-03-22T09:19:34.049Z,7.85
2023-03-22T09:29:18.494Z,12.48
2023-03-22T09:33:44.830Z,9.23
2023-03-22T09:37:55.132Z,9.30
2023-03-22T09:42:08.999Z,13.35
2023-03-22T09:46:44.919Z,11.40
2023-03-22T09:50:53.028Z,14.95
2023-03-22T09:55:42.384Z,12.65
2023-03-22T10:00:23.356Z,11.20
2023-03-22T10:04:51.240Z,11.70
2023-03-22T10:09:10.692Z,27.45
2023-03-22T10:14:11.926Z,60.67
2023-03-22T10:18:55.728Z,19.37
2023-03-22T10:23:02.326Z,11.70
2023-03-22T10:32:22.187Z,8.83
2023-03-22T10:36:40.890Z,8.68
2023-03-22T10:40:53.746Z,12.98
2023-03-22T10:45:22.696Z,9.50
2023-03-22T10:49:56.365Z,10.18
2023-03-22T10:54:27.982Z,8.55
2023-03-22T10:58:51.535Z,10.10
2023-03-22T11:03:00.353Z,7.47
2023-03-22T11:07:03.647Z,9.02
2023-03-22T11:16:05.796Z,9.10
2023-03-22T11:20:24.161Z,6.22
2023-03-22T11:24:47.204Z,4.30
2023-03-22T11:29:30.376Z,10.33
2023-03-22T11:33:39.254Z,9.82
2023-03-22T11:38:07.360Z,6.53
2023-03-22T11:42:19.915Z,7.43
2023-03-22T11:51:35.712Z,6.18
2023-03-22T11:56:33.688Z,6.07
2023-03-22T12:01:03.314Z,7.90
2023-03-22T12:10:51.912Z,10.80
2023-03-22T12:15:42.775Z,6.50
2023-03-22T12:20:15.932Z,5.25
2023-03-22T12:24:43.157Z,8.80
2023-03-22T12:28:47.304Z,10.55
2023-03-22T12:33:33.169Z,9.80
2023-03-22T12:37:41.038Z,12.32
2023-03-22T12:41:49.486Z,11.30
2023-03-22T12:45:58.394Z,14.03
2023-03-22T12:50:13.352Z,10.80
2023-03-22T12:54:23.838Z,11.73
2023-03-22T12:58:45.359Z,12.73
2023-03-22T13:03:59.985Z,10.93
2023-03-22T13:08:23.245Z,13.10
2023-03-22T13:17:02.204Z,14.80
2023-03-22T13:21:19.346Z,17.25
2023-03-22T13:25:37.728Z,11.73
2023-03-22T13:29:42.315Z,11.30
2023-03-22T13:33:54.487Z,11.98
2023-03-22T13:38:14.124Z,13.77
2023-03-22T13:42:23.034Z,7.57
2023-03-22T13:46:45.427Z,14.27
2023-03-22T13:51:08.271Z,10.23
2023-03-22T13:55:35.269Z,9.13
2023-03-22T14:00:14.403Z,7.47
2023-03-22T14:04:29.802Z,8.05
2023-03-22T14:08:35.051Z,9.65
2023-03-22T14:12:51.308Z,9.73
2023-03-22T14:17:27.207Z,9.13
